Time;durP1;ratioP1;P1;durP2;ratioP2;P2;SDS_P1;SDS_P2;PMS_P1;PMS_P2;Temp;Humidity;BMP_temperature;BMP_pressure;BME280_temperature;BME280_humidity;BME280_pressure;Samples;Min_cycle;Max_cycle;Signal;HPM_P1;HPM_P2
2022/09/25 00:00:08;;;;;;;11.75;3.40;;;;;;;11.13;100.00;101484.94;5045633;28;20449;-66
2022/09/25 00:02:33;;;;;;;9.35;3.65;;;;;;;11.12;100.00;101491.50;5047936;28;20049;-67
2022/09/25 00:04:58;;;;;;;11.48;3.78;;;;;;;11.11;100.00;101488.97;5047022;28;20075;-66
2022/09/25 00:07:23;;;;;;;11.30;3.75;;;;;;;11.08;100.00;101492.16;5047225;28;20424;-66
2022/09/25 00:09:49;;;;;;;9.80;3.38;;;;;;;11.05;100.00;101492.56;5046663;28;20028;-66
2022/09/25 00:12:14;;;;;;;10.85;3.50;;;;;;;11.08;100.00;101498.50;5047944;28;20432;-65
2022/09/25 00:14:39;;;;;;;8.98;3.40;;;;;;;11.08;100.00;101498.50;5046353;28;20029;-66
2022/09/25 00:17:05;;;;;;;8.38;3.42;;;;;;;11.08;100.00;101503.16;5047483;28;20039;-66
2022/09/25 00:19:51;;;;;;;10.75;3.58;;;;;;;11.04;100.00;101501.88;5046769;28;20025;-66
2022/09/25 00:22:21;;;;;;;11.27;3.97;;;;;;;11.03;100.00;101502.97;5046310;28;20095;-65
2022/09/25 00:24:46;;;;;;;10.23;3.55;;;;;;;10.99;100.00;101493.47;5048555;28;20029;-65
2022/09/25 00:27:13;;;;;;;10.77;4.25;;;;;;;10.95;100.00;101504.06;5047883;28;20036;-65
2022/09/25 00:29:39;;;;;;;10.23;3.92;;;;;;;10.90;100.00;101495.63;5046560;28;20371;-65
2022/09/25 00:32:06;;;;;;;11.65;4.22;;;;;;;10.85;100.00;101492.69;5047542;28;20474;-66
2022/09/25 00:34:32;;;;;;;13.68;3.63;;;;;;;10.83;100.00;101492.88;5047659;28;20037;-65
2022/09/25 00:36:57;;;;;;;11.75;4.53;;;;;;;10.84;100.00;101499.22;5045720;28;20456;-66
2022/09/25 00:39:24;;;;;;;13.05;3.75;;;;;;;10.81;100.00;101494.16;5046439;28;20028;-66
2022/09/25 00:41:50;;;;;;;10.73;3.80;;;;;;;10.80;100.00;101490.59;5047011;28;20379;-66
2022/09/25 00:44:55;;;;;;;10.48;4.55;;;;;;;10.84;100.00;101501.97;5047135;28;20044;-65
2022/09/25 00:47:47;;;;;;;10.77;3.33;;;;;;;10.79;100.00;101497.13;5047340;28;20040;-66
2022/09/25 00:50:16;;;;;;;9.85;3.20;;;;;;;10.73;100.00;101500.72;5045174;28;20445;-66
2022/09/25 00:52:42;;;;;;;11.18;3.72;;;;;;;10.75;100.00;101509.63;5046756;28;20110;-65
2022/09/25 00:55:08;;;;;;;8.63;3.30;;;;;;;10.72;100.00;101507.28;5045927;28;20483;-66
2022/09/25 00:57:38;;;;;;;9.45;3.60;;;;;;;10.72;100.00;101507.28;5047656;28;20112;-65
2022/09/25 01:00:07;;;;;;;6.97;3.08;;;;;;;10.65;100.00;101503.72;5047087;28;20167;-66
2022/09/25 01:02:38;;;;;;;12.07;3.55;;;;;;;10.63;100.00;101512.16;5046909;28;20494;-66
2022/09/25 01:05:08;;;;;;;7.85;3.70;;;;;;;10.61;100.00;101507.97;5026525;28;20065;-65
2022/09/25 01:07:37;;;;;;;9.82;3.38;;;;;;;10.60;100.00;101509.03;5046687;28;20639;-66
2022/09/25 01:10:06;;;;;;;11.00;3.85;;;;;;;10.58;100.00;101503.72;5079307;22;20084;-66
2022/09/25 01:12:34;;;;;;;11.65;4.00;;;;;;;10.59;100.00;101505.44;5010578;28;20396;-65
2022/09/25 01:14:59;;;;;;;12.57;4.50;;;;;;;10.59;100.00;101508.19;5014123;28;20527;-66
2022/09/25 01:17:38;;;;;;;9.68;3.90;;;;;;;10.58;100.00;101509.22;5029462;28;20112;-66
2022/09/25 01:20:40;;;;;;;10.10;3.95;;;;;;;10.57;100.00;101512.19;5023444;28;20030;-66
2022/09/25 01:23:36;;;;;;;11.15;4.10;;;;;;;10.54;100.00;101516.22;5010587;28;20045;-65
2022/09/25 01:26:10;;;;;;;9.93;3.67;;;;;;;10.50;100.00;101514.13;4994120;28;20069;-65
2022/09/25 01:28:48;;;;;;;8.93;3.50;;;;;;;10.43;100.00;101521.50;5010147;28;20425;-65
2022/09/25 01:31:40;;;;;;;9.97;3.77;;;;;;;10.40;100.00;101517.28;5013730;28;20037;-65
2022/09/25 01:34:28;;;;;;;10.15;3.97;;;;;;;10.34;100.00;101509.88;5011229;28;20280;-66
2022/09/25 01:37:13;;;;;;;8.68;4.13;;;;;;;10.32;100.00;101529.31;5010392;28;20056;-65
2022/09/25 01:39:45;;;;;;;10.10;4.13;;;;;;;10.25;100.00;101523.00;4993197;28;20041;-65
2022/09/25 01:42:25;;;;;;;9.90;4.15;;;;;;;10.27;100.00;101522.78;5019531;28;20029;-66
2022/09/25 01:45:03;;;;;;;11.38;3.83;;;;;;;10.21;100.00;101518.97;5026554;28;20550;-65
2022/09/25 01:47:32;;;;;;;10.85;3.90;;;;;;;10.13;100.00;101522.75;5010966;28;20034;-65
2022/09/25 01:50:01;;;;;;;10.27;4.13;;;;;;;10.05;100.00;101522.13;5012146;28;20506;-66
2022/09/25 01:52:38;;;;;;;9.43;4.13;;;;;;;10.01;100.00;101520.88;5019730;28;20034;-66
2022/09/25 01:55:19;;;;;;;13.20;4.00;;;;;;;9.96;100.00;101534.38;5026339;28;20037;-65
2022/09/25 01:57:55;;;;;;;8.32;4.10;;;;;;;9.90;100.00;101533.31;5029136;28;20029;-66
2022/09/25 02:00:24;;;;;;;10.48;3.92;;;;;;;9.84;100.00;101528.66;5015515;28;20038;-65
2022/09/25 02:03:05;;;;;;;;;;;;;;;9.93;100.00;101529.28;5010081;28;20069;-65
2022/09/25 02:05:54;;;;;;;8.48;3.85;;;;;;;9.79;100.00;101525.72;5016074;28;20338;-65
2022/09/25 02:08:27;;;;;;;10.70;4.50;;;;;;;9.71;100.00;101529.47;5014215;28;20145;-66
2022/09/25 02:10:59;;;;;;;10.73;3.97;;;;;;;9.62;100.00;101527.97;5023351;28;20095;-66
2022/09/25 02:13:33;;;;;;;7.43;3.80;;;;;;;9.57;100.00;101530.50;5019601;28;20133;-66
2022/09/25 02:16:04;;;;;;;9.85;4.20;;;;;;;9.52;100.00;101524.78;5016101;28;20087;-66
2022/09/25 02:21:41;;;;;;;11.60;3.90;;;;;;;9.42;100.00;101518.84;5011962;28;20092;-65
2022/09/25 02:24:23;;;;;;;11.35;4.60;;;;;;;9.36;100.00;101520.53;5023507;28;20037;-65
2022/09/25 02:26:49;;;;;;;9.07;4.13;;;;;;;9.30;100.00;101513.97;5009940;28;20849;-66
2022/09/25 02:29:15;;;;;;;14.45;4.20;;;;;;;9.24;100.00;101514.81;5012229;28;20079;-65
2022/09/25 02:31:49;;;;;;;8.85;3.90;;;;;;;9.24;100.00;101523.03;5018041;28;20448;-66
2022/09/25 02:34:14;;;;;;;11.63;3.92;;;;;;;9.17;100.00;101522.16;5010749;28;20033;-65
2022/09/25 02:36:41;;;;;;;9.15;3.90;;;;;;;9.17;100.00;101530.38;5010461;28;20100;-66
2022/09/25 02:39:08;;;;;;;10.18;4.00;;;;;;;9.15;100.00;101529.75;5022152;28;20596;-66
2022/09/25 02:41:45;;;;;;;11.80;4.20;;;;;;;9.13;100.00;101531.84;5010267;28;20393;-66
2022/09/25 02:44:47;;;;;;;8.93;3.92;;;;;;;9.12;100.00;101532.88;5008903;28;20034;-66
2022/09/25 02:47:18;;;;;;;11.38;4.10;;;;;;;9.08;100.00;101529.72;5010155;28;20033;-66
2022/09/25 02:49:53;;;;;;;9.00;3.78;;;;;;;9.07;100.00;101524.44;5009806;28;20046;-66
2022/09/25 02:52:18;;;;;;;10.52;4.07;;;;;;;9.00;100.00;101516.19;5013013;28;20025;-66
2022/09/25 02:54:51;;;;;;;8.85;3.88;;;;;;;8.97;100.00;101513.88;5011880;28;20038;-66
2022/09/25 02:57:28;;;;;;;8.30;3.90;;;;;;;8.95;100.00;101506.88;5027593;28;20033;-66
2022/09/25 03:00:02;;;;;;;12.75;4.22;;;;;;;8.92;100.00;101508.16;5029154;28;20053;-66
2022/09/25 03:02:30;;;;;;;8.00;3.75;;;;;;;8.87;100.00;101498.84;5028815;28;20037;-66
2022/09/25 03:04:57;;;;;;;;;;;;;;;8.97;100.00;101505.66;5025358;28;20033;-66
2022/09/25 03:07:22;;;;;;;8.15;3.60;;;;;;;8.82;100.00;101510.44;5018767;28;19987;-66
2022/09/25 03:09:52;;;;;;;8.98;4.00;;;;;;;8.77;100.00;101511.03;5008856;28;20511;-65
2022/09/25 03:12:17;;;;;;;10.48;3.67;;;;;;;8.75;100.00;101510.38;5008084;28;20022;-65
2022/09/25 03:14:42;;;;;;;8.52;4.35;;;;;;;8.75;100.00;101507.63;5009248;28;20021;-65
2022/09/25 03:17:10;;;;;;;13.70;5.30;;;;;;;8.72;100.00;101508.06;5008780;28;20490;-66
2022/09/25 03:19:37;;;;;;;11.95;4.40;;;;;;;8.72;100.00;101520.91;5008737;28;20053;-65
2022/09/25 03:22:02;;;;;;;10.25;4.50;;;;;;;8.71;100.00;101514.56;5023003;28;20068;-65
2022/09/25 03:24:27;;;;;;;9.48;4.50;;;;;;;8.68;100.00;101517.72;5008741;28;20073;-65
2022/09/25 03:26:53;;;;;;;11.57;4.65;;;;;;;8.67;100.00;101509.69;5020254;28;20041;-66
2022/09/25 03:29:19;;;;;;;12.63;4.50;;;;;;;8.66;100.00;101510.72;5008126;28;20412;-66
2022/09/25 03:31:45;;;;;;;9.93;4.63;;;;;;;8.66;100.00;101508.00;5008866;28;20038;-66
2022/09/25 03:34:12;;;;;;;7.97;4.88;;;;;;;8.65;100.00;101506.31;4990945;28;20100;-65
2022/09/25 03:36:38;;;;;;;10.25;4.72;;;;;;;8.65;100.00;101511.78;5015692;28;20383;-66
2022/09/25 03:39:04;;;;;;;8.55;4.45;;;;;;;8.63;100.00;101511.16;5019368;28;20087;-66
2022/09/25 03:41:32;;;;;;;11.02;4.90;;;;;;;8.66;100.00;101506.09;5028435;28;20029;-66
2022/09/25 03:43:58;;;;;;;11.38;4.72;;;;;;;8.64;100.00;101510.94;5027423;28;20033;-66
2022/09/25 03:46:27;;;;;;;10.27;4.82;;;;;;;8.60;100.00;101506.06;5022966;28;20095;-65
2022/09/25 03:48:53;;;;;;;11.50;5.03;;;;;;;8.61;100.00;101503.13;5027874;28;20026;-66
2022/09/25 03:51:19;;;;;;;8.40;4.65;;;;;;;8.57;100.00;101505.44;5024152;28;20524;-66
2022/09/25 03:53:45;;;;;;;8.73;4.53;;;;;;;8.58;100.00;101511.75;5020789;28;20033;-66
2022/09/25 03:56:16;;;;;;;10.20;5.00;;;;;;;8.54;100.00;101505.00;5025426;28;20121;-66
2022/09/25 03:58:42;;;;;;;14.73;5.40;;;;;;;8.54;100.00;101510.47;5009466;28;20068;-66
2022/09/25 04:01:09;;;;;;;10.93;4.95;;;;;;;8.51;100.00;101511.69;5028080;28;20040;-65
2022/09/25 04:03:36;;;;;;;10.13;4.90;;;;;;;8.52;100.00;101507.09;5023965;28;20387;-66
2022/09/25 04:06:03;;;;;;;9.52;5.18;;;;;;;8.55;100.00;101514.88;5007501;28;20413;-66
2022/09/25 04:08:30;;;;;;;10.13;5.53;;;;;;;8.57;100.00;101512.81;5009992;28;20033;-66
2022/09/25 04:10:58;;;;;;;11.05;5.57;;;;;;;8.56;100.00;101514.69;5007597;28;20042;-65
2022/09/25 04:13:25;;;;;;;;;;;;;;;8.65;100.00;101511.78;5000209;28;20041;-65
2022/09/25 04:15:50;;;;;;;10.07;5.63;;;;;;;8.63;100.00;101502.94;5025307;28;20383;-66
2022/09/25 04:18:16;;;;;;;13.32;6.13;;;;;;;8.60;100.00;101498.69;5011704;28;20029;-65
2022/09/25 04:20:41;;;;;;;9.13;5.97;;;;;;;8.58;100.00;101500.81;5007638;28;20052;-66
2022/09/25 04:23:06;;;;;;;11.30;5.90;;;;;;;8.59;100.00;101502.50;5010890;28;20040;-66
2022/09/25 04:25:32;;;;;;;12.90;6.10;;;;;;;8.56;100.00;101500.16;5027209;28;20029;-66
2022/09/25 04:27:57;;;;;;;11.70;5.80;;;;;;;8.53;100.00;101500.56;5024110;28;20030;-66
2022/09/25 04:30:25;;;;;;;15.32;6.07;;;;;;;8.52;100.00;101501.63;5023230;28;20030;-66
2022/09/25 04:35:35;;;;;;;10.95;6.00;;;;;;;8.45;100.00;101501.56;5011771;28;20124;-66
2022/09/25 04:38:01;;;;;;;12.07;6.07;;;;;;;8.44;100.00;101504.50;5017420;28;20050;-66
2022/09/25 04:40:28;;;;;;;10.23;6.18;;;;;;;8.43;100.00;101505.56;5019604;28;20030;-66
2022/09/25 04:42:58;;;;;;;10.27;5.97;;;;;;;8.43;100.00;101505.56;5008641;28;20021;-66
2022/09/25 04:45:25;;;;;;;10.45;6.15;;;;;;;8.43;100.00;101505.56;5022101;28;20037;-65
2022/09/25 04:47:51;;;;;;;11.85;6.07;;;;;;;8.41;100.00;101505.72;5011886;28;20044;-66
2022/09/25 04:50:16;;;;;;;11.20;6.20;;;;;;;8.39;100.00;101502.38;5007530;28;20030;-66
2022/09/25 04:52:41;;;;;;;11.35;5.78;;;;;;;8.38;100.00;101510.78;5007771;28;20120;-66
2022/09/25 04:55:07;;;;;;;9.88;6.00;;;;;;;8.35;100.00;101505.66;5006184;28;20030;-65
2022/09/25 04:57:32;;;;;;;10.73;6.30;;;;;;;8.31;100.00;101503.34;5009673;28;20045;-65
2022/09/25 04:59:58;;;;;;;10.15;5.75;;;;;;;8.29;100.00;101501.84;4989439;28;20040;-66
2022/09/25 05:02:27;;;;;;;10.73;6.20;;;;;;;8.27;100.00;101504.78;5007078;28;20026;-65
2022/09/25 05:04:52;;;;;;;12.98;5.93;;;;;;;8.24;100.00;101494.22;5007403;28;20030;-66
2022/09/25 05:07:17;;;;;;;9.73;6.55;;;;;;;8.26;100.00;101494.00;5013572;28;20095;-66
2022/09/25 05:09:43;;;;;;;10.23;5.82;;;;;;;8.22;100.00;101488.13;5021260;28;20045;-65
2022/09/25 05:12:08;;;;;;;12.40;6.28;;;;;;;8.22;100.00;101485.38;5016840;28;20128;-66
2022/09/25 05:14:33;;;;;;;8.95;6.05;;;;;;;8.19;100.00;101485.78;5025479;28;20394;-65
2022/09/25 05:17:00;;;;;;;11.55;6.60;;;;;;;8.20;100.00;101484.72;5021349;28;20017;-66
2022/09/25 05:19:25;;;;;;;12.45;6.85;;;;;;;8.18;100.00;101489.56;5025876;28;20041;-65
2022/09/25 05:21:52;;;;;;;11.25;6.65;;;;;;;8.20;100.00;101492.94;5007153;28;20104;-65
2022/09/25 05:24:17;;;;;;;11.93;6.88;;;;;;;8.19;100.00;101483.03;5007989;28;20030;-65
2022/09/25 05:26:42;;;;;;;10.60;6.63;;;;;;;8.21;100.00;101493.78;5012098;28;20486;-65
2022/09/25 05:29:08;;;;;;;11.68;6.55;;;;;;;8.20;100.00;101492.94;5025649;28;20084;-65
2022/09/25 05:31:34;;;;;;;12.25;6.43;;;;;;;8.24;100.00;101487.91;5024560;28;20117;-66
2022/09/25 05:33:59;;;;;;;15.25;7.90;;;;;;;8.28;100.00;101495.53;5022662;28;20053;-65
2022/09/25 05:36:25;;;;;;;14.10;8.00;;;;;;;8.36;100.00;101482.72;5026408;28;20483;-65
2022/09/25 05:38:50;;;;;;;14.95;8.13;;;;;;;8.37;100.00;101477.09;5019616;28;20093;-65
2022/09/25 05:41:15;;;;;;;13.80;8.38;;;;;;;8.38;100.00;101487.00;5007242;28;20060;-66
2022/09/25 05:43:43;;;;;;;13.48;8.20;;;;;;;8.36;100.00;101486.34;5006659;28;20112;-65
2022/09/25 05:46:10;;;;;;;15.07;9.32;;;;;;;8.35;100.00;101498.28;5007514;28;20045;-65
2022/09/25 05:48:36;;;;;;;14.57;7.78;;;;;;;8.33;100.00;101493.03;5015083;28;20033;-65
2022/09/25 05:51:01;;;;;;;14.18;8.35;;;;;;;8.35;100.00;101490.09;5013017;28;20449;-65
2022/09/25 05:53:27;;;;;;;13.32;8.38;;;;;;;8.31;100.00;101494.25;5007410;28;20396;-65
2022/09/25 05:55:54;;;;;;;13.27;9.32;;;;;;;8.32;100.00;101494.09;5006565;28;20483;-65
2022/09/25 05:58:20;;;;;;;14.68;9.57;;;;;;;8.31;100.00;101491.53;5008689;28;20049;-65
2022/09/25 06:00:47;;;;;;;14.00;8.98;;;;;;;8.31;100.00;101499.75;5010502;28;20034;-65
2022/09/25 06:03:13;;;;;;;13.15;8.95;;;;;;;8.33;100.00;101494.94;5022436;28;20065;-65
2022/09/25 06:05:39;;;;;;;14.13;9.07;;;;;;;8.30;100.00;101501.63;5012405;28;20068;-66
2022/09/25 06:08:05;;;;;;;13.02;8.82;;;;;;;8.33;100.00;101497.66;5010805;28;21974;-65
2022/09/25 06:10:31;;;;;;;13.30;8.57;;;;;;;8.36;100.00;101507.34;5011102;28;20042;-65
2022/09/25 06:12:58;;;;;;;14.10;8.38;;;;;;;8.41;100.00;101504.91;5027958;28;20353;-66
2022/09/25 06:15:24;;;;;;;11.30;7.82;;;;;;;8.44;100.00;101509.97;5028105;28;20025;-65
2022/09/25 06:17:50;;;;;;;12.82;7.75;;;;;;;8.46;100.00;101503.25;5021039;28;20034;-66
2022/09/25 06:20:16;;;;;;;12.57;7.40;;;;;;;8.50;100.00;101503.69;5028837;28;20029;-65
2022/09/25 06:22:43;;;;;;;12.18;7.00;;;;;;;8.55;100.00;101506.69;5029790;28;20037;-65
2022/09/25 06:25:09;;;;;;;10.60;6.15;;;;;;;8.60;100.00;101508.81;5009553;28;20073;-65
2022/09/25 06:27:35;;;;;;;12.73;6.03;;;;;;;8.65;100.00;101503.56;5009085;28;20092;-65
2022/09/25 06:30:00;;;;;;;10.10;6.00;;;;;;;8.69;100.00;101502.13;5010837;28;20038;-66
2022/09/25 06:32:25;;;;;;;9.20;5.68;;;;;;;8.77;100.00;101510.19;4991385;28;20083;-66
2022/09/25 06:34:51;;;;;;;10.82;5.75;;;;;;;8.80;100.00;101512.50;4992911;28;20052;-66
2022/09/25 06:37:16;;;;;;;10.25;5.70;;;;;;;8.84;100.00;101511.91;5015350;28;20025;-66
2022/09/25 06:39:41;;;;;;;11.52;5.95;;;;;;;8.91;100.00;101511.09;5011951;28;20433;-66
2022/09/25 06:42:06;;;;;;;11.32;6.63;;;;;;;8.98;100.00;101509.22;5011568;28;20030;-66
2022/09/25 06:44:33;;;;;;;12.18;6.45;;;;;;;9.04;100.00;101511.16;5010218;28;20455;-66
2022/09/25 06:46:58;;;;;;;10.57;6.03;;;;;;;9.11;100.00;101509.28;5016492;28;20129;-66
2022/09/25 06:49:23;;;;;;;10.90;6.25;;;;;;;9.17;100.00;101516.66;5019913;28;20129;-66
2022/09/25 06:51:50;;;;;;;13.95;6.47;;;;;;;9.22;100.00;101513.31;5011484;28;20101;-66
2022/09/25 06:54:15;;;;;;;11.52;6.88;;;;;;;9.24;100.00;101512.06;5009713;28;20084;-66
2022/09/25 06:56:40;;;;;;;11.45;6.30;;;;;;;9.31;100.00;101517.56;5010302;28;20057;-66
2022/09/25 06:59:06;;;;;;;11.65;5.68;;;;;;;9.36;100.00;101520.53;5008972;28;20113;-66
2022/09/25 07:01:31;;;;;;;10.63;6.25;;;;;;;9.41;100.00;101518.03;5008735;28;20373;-66
2022/09/25 07:03:56;;;;;;;11.07;6.88;;;;;;;9.47;100.00;101522.66;5010707;28;20072;-66
2022/09/25 07:06:25;;;;;;;11.32;6.10;;;;;;;9.53;100.00;101521.00;5023067;28;20435;-66
2022/09/25 07:08:51;;;;;;;11.80;6.25;;;;;;;9.58;100.00;101526.72;5019909;28;20033;-66
2022/09/25 07:11:19;;;;;;;11.93;6.03;;;;;;;9.69;100.00;101528.00;5008210;28;20444;-66
2022/09/25 07:13:44;;;;;;;10.40;5.60;;;;;;;9.73;100.00;101532.88;5008252;28;20075;-66
2022/09/25 07:16:15;;;;;;;10.05;6.32;;;;;;;9.79;100.00;101520.22;5011205;28;20105;-66
2022/09/25 07:18:42;;;;;;;13.02;6.00;;;;;;;9.85;100.00;101524.88;5020030;28;20468;-66
2022/09/25 07:21:19;;;;;;;10.43;5.93;;;;;;;9.92;100.00;101528.44;5023634;28;20042;-66
2022/09/25 07:23:47;;;;;;;11.40;5.57;;;;;;;9.96;100.00;101526.97;5021041;28;20052;-67
2022/09/25 07:26:21;;;;;;;11.77;5.78;;;;;;;10.06;100.00;101526.56;5009437;28;20506;-67
2022/09/25 07:28:53;;;;;;;12.10;5.70;;;;;;;10.12;100.00;101531.19;5008102;28;20037;-67
2022/09/25 07:31:22;;;;;;;10.52;5.70;;;;;;;10.17;100.00;101533.31;5008828;28;20026;-67
2022/09/25 07:33:47;;;;;;;;;;;;;;;10.26;100.00;101535.66;5013111;28;20025;-67
2022/09/25 07:36:14;;;;;;;11.02;5.68;;;;;;;10.33;100.00;101527.44;5020852;28;19925;-67
2022/09/25 07:38:40;;;;;;;11.38;5.97;;;;;;;10.40;100.00;101531.03;5028380;28;20503;-67
2022/09/25 07:41:07;;;;;;;9.07;5.30;;;;;;;10.48;100.00;101527.19;5022642;28;20060;-67
2022/09/25 07:43:32;;;;;;;10.65;5.72;;;;;;;10.53;100.00;101528.25;5021837;28;20525;-67
2022/09/25 07:45:58;;;;;;;11.90;5.57;;;;;;;10.60;100.00;101529.09;5031296;28;20037;-67
2022/09/25 07:48:23;;;;;;;11.38;5.45;;;;;;;10.67;100.00;101526.31;5024077;28;20029;-66
2022/09/25 07:50:49;;;;;;;11.77;5.88;;;;;;;10.73;100.00;101524.63;5026781;28;20472;-66
2022/09/25 07:53:18;;;;;;;12.38;5.43;;;;;;;10.82;100.00;101528.81;4998961;28;20348;-66
2022/09/25 07:55:46;;;;;;;11.23;5.60;;;;;;;10.86;100.00;101528.19;5026022;28;20026;-66
2022/09/25 07:58:12;;;;;;;;;;;;;;;10.95;100.00;101526.06;5020537;28;20037;-66
2022/09/25 08:00:38;;;;;;;10.05;5.63;;;;;;;11.02;100.00;101526.00;5018334;28;19918;-66
2022/09/25 08:03:04;;;;;;;12.15;5.47;;;;;;;11.12;100.00;101521.75;5020260;28;20045;-66
2022/09/25 08:05:29;;;;;;;9.10;5.30;;;;;;;11.23;100.00;101522.97;5019918;28;20561;-66
2022/09/25 08:07:54;;;;;;;9.90;5.20;;;;;;;11.28;100.00;101519.56;5027398;28;20041;-66
2022/09/25 08:10:20;;;;;;;11.13;5.13;;;;;;;11.34;100.00;101519.50;5022532;28;20060;-66
2022/09/25 08:12:46;;;;;;;10.85;5.47;;;;;;;11.45;100.00;101526.22;5023552;28;20045;-66
2022/09/25 08:15:13;;;;;;;9.95;4.72;;;;;;;11.57;100.00;101518.13;5024971;28;20034;-66
2022/09/25 08:17:38;;;;;;;11.95;4.90;;;;;;;11.67;100.00;101518.50;5027631;28;20041;-66
2022/09/25 08:20:04;;;;;;;11.75;5.07;;;;;;;11.74;100.00;101523.94;5026998;28;20164;-66
2022/09/25 08:22:30;;;;;;;10.23;5.40;;;;;;;11.84;100.00;101525.16;5019565;28;20159;-66
2022/09/25 08:24:55;;;;;;;10.75;5.10;;;;;;;11.93;100.00;101515.59;5021302;28;20041;-66
2022/09/25 08:27:20;;;;;;;11.18;5.40;;;;;;;12.00;100.00;101514.69;5026352;28;20519;-67
2022/09/25 08:29:45;;;;;;;11.93;5.38;;;;;;;12.14;100.00;101513.50;5027763;28;20037;-67
2022/09/25 08:32:11;;;;;;;12.23;5.38;;;;;;;12.32;100.00;101513.56;5018486;28;20038;-66
2022/09/25 08:34:36;;;;;;;11.95;4.55;;;;;;;12.45;100.00;101521.69;5026103;28;20467;-67
2022/09/25 08:37:02;;;;;;;11.88;4.82;;;;;;;12.45;100.00;101518.09;5024209;28;20215;-66
2022/09/25 08:39:27;;;;;;;12.95;4.43;;;;;;;12.50;100.00;101515.50;5021788;28;20052;-66
2022/09/25 08:41:54;;;;;;;11.77;4.22;;;;;;;12.57;99.52;101516.31;5026657;28;20411;-66
2022/09/25 08:44:41;;;;;;;9.20;3.70;;;;;;;12.73;100.00;101517.63;5026284;28;20045;-67
2022/09/25 08:50:13;;;;;;;13.57;4.03;;;;;;;13.79;92.45;101520.91;5021954;28;20087;-66
2022/09/25 08:52:50;;;;;;;8.73;3.33;;;;;;;14.73;89.78;101516.38;5026307;28;20036;-67
2022/09/25 08:58:23;;;;;;;9.07;2.30;;;;;;;18.06;73.54;101516.72;5022006;28;20138;-67
2022/09/25 09:00:51;;;;;;;6.70;2.30;;;;;;;19.17;67.91;101503.84;5015229;28;20175;-67
2022/09/25 09:03:17;;;;;;;9.88;2.97;;;;;;;20.11;63.98;101510.19;5018956;28;20099;-67
2022/09/25 09:05:45;;;;;;;7.22;2.30;;;;;;;21.50;58.74;101518.84;5014993;28;20072;-66
2022/09/25 09:08:24;;;;;;;11.05;2.40;;;;;;;22.88;56.50;101514.09;5017966;28;20128;-67
2022/09/25 09:11:05;;;;;;;7.32;2.15;;;;;;;23.89;55.10;101505.50;5005766;28;20042;-67
2022/09/25 09:13:43;;;;;;;8.05;1.77;;;;;;;24.69;47.46;101512.88;5008157;28;20034;-67
2022/09/25 09:16:27;;;;;;;8.95;2.10;;;;;;;25.10;53.77;101505.31;5005664;28;20034;-66
2022/09/25 09:18:54;;;;;;;7.75;2.13;;;;;;;24.37;46.35;101510.91;5005124;28;20038;-66
2022/09/25 09:21:26;;;;;;;8.38;2.00;;;;;;;24.14;47.69;101505.09;5014983;28;20496;-66
2022/09/25 09:24:00;;;;;;;6.25;1.77;;;;;;;24.76;46.07;101500.06;5005748;28;20466;-66
2022/09/25 09:26:35;;;;;;;9.65;2.10;;;;;;;25.69;46.08;101498.97;5005437;28;20041;-66
2022/09/25 09:29:22;;;;;;;7.97;1.38;;;;;;;25.86;41.69;101505.63;5007667;28;20538;-66
2022/09/25 09:32:10;;;;;;;6.57;1.45;;;;;;;26.49;45.38;101500.13;5021501;28;20503;-64
2022/09/25 09:34:52;;;;;;;8.43;1.55;;;;;;;26.61;43.14;101494.72;5013726;28;20030;-63
2022/09/25 09:37:41;;;;;;;3.40;1.00;;;;;;;26.94;40.52;101502.84;5018509;28;20029;-66
2022/09/25 09:40:45;;;;;;;8.07;1.13;;;;;;;25.67;44.74;101488.03;5030274;28;20101;-67
2022/09/25 09:43:32;;;;;;;6.50;1.23;;;;;;;25.32;43.24;101489.66;5010308;28;20026;-67
2022/09/25 09:46:12;;;;;;;5.27;1.30;;;;;;;26.32;40.91;101493.22;5028189;28;20095;-67
2022/09/25 09:49:14;;;;;;;7.53;1.33;;;;;;;25.73;42.58;101485.94;5021465;28;20388;-66
2022/09/25 09:52:03;;;;;;;5.72;1.48;;;;;;;23.77;46.37;101486.31;5029756;28;20029;-65
2022/09/25 09:54:52;;;;;;;6.10;1.20;;;;;;;21.95;51.19;101493.66;5028135;28;20112;-68
2022/09/25 09:57:44;;;;;;;4.70;1.13;;;;;;;23.70;48.23;101480.25;5030222;28;20040;-67
2022/09/25 10:00:15;;;;;;;5.50;1.00;;;;;;;25.66;41.72;101471.47;5030200;28;20104;-68
2022/09/25 10:03:03;;;;;;;5.55;1.58;;;;;;;27.33;42.77;101476.63;5029747;28;20107;-67
2022/09/25 10:05:41;;;;;;;4.05;1.17;;;;;;;27.31;38.64;101479.75;5027750;28;20427;-67
2022/09/25 10:08:08;;;;;;;5.63;1.05;;;;;;;26.90;35.91;101480.91;5016370;28;20053;-66
2022/09/25 10:10:36;;;;;;;;;;;;;;;26.58;40.06;101479.28;5010426;28;20117;-67
2022/09/25 10:13:05;;;;;;;6.55;1.20;;;;;;;25.35;39.47;101477.81;5010580;28;20337;-67
2022/09/25 10:15:53;;;;;;;3.35;0.80;;;;;;;26.85;40.88;101477.41;5029476;28;20022;-66
2022/09/25 10:18:23;;;;;;;6.25;1.45;;;;;;;26.45;37.04;101473.75;5026791;28;20017;-67
2022/09/25 10:20:55;;;;;;;5.60;1.17;;;;;;;26.25;36.70;101470.28;5015494;28;20029;-67
2022/09/25 10:23:34;;;;;;;4.60;1.05;;;;;;;27.23;37.38;101471.28;5028792;28;20069;-67
2022/09/25 10:25:59;;;;;;;2.53;0.80;;;;;;;28.33;33.02;101469.94;5029226;28;20045;-67
2022/09/25 10:28:31;;;;;;;3.72;0.80;;;;;;;28.40;31.72;101462.66;5028749;28;20139;-66
2022/09/25 10:30:57;;;;;;;5.55;1.05;;;;;;;26.45;35.30;101474.56;5029268;28;20091;-67
2022/09/25 10:33:30;;;;;;;4.35;0.82;;;;;;;24.21;39.37;101471.00;5026528;28;20452;-67
2022/09/25 10:35:57;;;;;;;3.47;0.80;;;;;;;25.13;38.48;101470.13;5027103;28;20045;-67
2022/09/25 10:38:31;;;;;;;4.32;1.05;;;;;;;26.75;35.36;101472.91;5029607;28;20025;-67
2022/09/25 10:41:12;;;;;;;4.97;0.95;;;;;;;28.16;35.26;101468.00;5022932;28;20049;-67
2022/09/25 10:43:59;;;;;;;4.28;1.00;;;;;;;29.69;35.09;101456.66;5022272;28;20037;-66
2022/09/25 10:52:14;;;;;;;3.67;0.90;;;;;;;26.37;32.31;101473.34;5017500;28;20121;-65
2022/09/25 10:54:41;;;;;;;4.38;0.93;;;;;;;23.80;37.56;101469.72;5016576;28;20038;-64
2022/09/25 10:57:34;;;;;;;5.05;0.90;;;;;;;23.08;43.84;101468.22;5009249;28;20038;-64
2022/09/25 11:00:02;;;;;;;4.38;0.90;;;;;;;25.00;37.34;101454.91;5008165;28;20342;-64
2022/09/25 11:02:35;;;;;;;2.42;0.57;;;;;;;27.21;34.84;101459.47;5008377;28;20029;-64
2022/09/25 11:05:01;;;;;;;4.55;0.95;;;;;;;28.47;33.78;101455.66;5019232;28;20112;-64
2022/09/25 11:07:27;;;;;;;3.83;0.60;;;;;;;26.91;33.63;101457.19;5028468;28;20370;-65
2022/09/25 11:09:52;;;;;;;4.82;1.08;;;;;;;24.73;36.60;101447.28;5029001;28;20121;-65
2022/09/25 11:12:22;;;;;;;5.15;1.30;;;;;;;24.00;37.91;101453.69;5026134;28;20032;-65
2022/09/25 11:15:09;;;;;;;4.05;0.80;;;;;;;24.03;41.22;101453.09;5017835;28;20042;-66
2022/09/25 11:17:40;;;;;;;4.80;0.90;;;;;;;25.80;38.38;101450.63;5012559;28;20040;-66
2022/09/25 11:20:17;;;;;;;2.63;0.80;;;;;;;27.13;34.47;101450.69;5012589;28;20026;-66
2022/09/25 11:23:21;;;;;;;3.58;0.75;;;;;;;28.57;34.92;101456.13;5009026;28;20037;-66
2022/09/25 11:26:14;;;;;;;2.60;0.60;;;;;;;29.80;31.44;101451.41;5026840;28;20471;-66
2022/09/25 11:28:50;;;;;;;4.25;0.80;;;;;;;27.28;32.42;101457.03;5025830;28;20037;-66
2022/09/25 11:31:53;;;;;;;4.63;0.90;;;;;;;24.58;39.08;101444.78;5011603;28;20030;-66
2022/09/25 11:34:53;;;;;;;3.75;0.70;;;;;;;24.04;43.44;101454.75;5016907;28;20025;-67
2022/09/25 11:37:22;;;;;;;3.25;0.60;;;;;;;26.12;36.91;101434.59;5006351;28;20042;-67
2022/09/25 11:42:50;;;;;;;2.70;0.60;;;;;;;27.30;33.23;101429.31;5006349;28;20044;-66
2022/09/25 11:45:34;;;;;;;4.38;0.80;;;;;;;26.43;33.72;101425.38;5007368;28;20435;-66
2022/09/25 11:48:18;;;;;;;3.60;0.70;;;;;;;24.73;36.94;101430.44;5006664;28;20393;-66
2022/09/25 11:51:34;;;;;;;3.97;0.70;;;;;;;22.52;39.18;101439.72;5006418;28;20033;-66
2022/09/25 11:54:27;;;;;;;5.70;0.80;;;;;;;20.78;43.60;101428.06;4991114;28;20046;-66
2022/09/25 11:57:15;;;;;;;1.88;0.70;;;;;;;20.37;47.44;101432.91;5005159;28;20129;-66